createdAt,value
2023-07-17T00:01:40.456Z,17.95
2023-07-17T00:06:44.944Z,17.81
2023-07-17T00:11:48.058Z,17.67
2023-07-17T00:16:51.291Z,17.51
2023-07-17T00:21:55.788Z,17.52
2023-07-17T00:26:58.897Z,17.50
2023-07-17T00:32:01.998Z,17.50
2023-07-17T00:37:07.102Z,17.51
2023-07-17T00:42:10.424Z,17.47
2023-07-17T00:47:14.469Z,17.34
2023-07-17T00:52:19.199Z,17.18
2023-07-17T00:57:26.147Z,16.96
2023-07-17T01:02:29.987Z,16.66
2023-07-17T01:07:34.902Z,16.39
2023-07-17T01:12:39.069Z,16.07
2023-07-17T01:17:43.104Z,15.89
2023-07-17T01:22:57.445Z,15.75
2023-07-17T01:28:00.635Z,15.66
2023-07-17T01:33:03.912Z,15.53
2023-07-17T01:38:08.900Z,15.42
2023-07-17T01:43:12.062Z,15.26
2023-07-17T01:48:16.323Z,15.20
2023-07-17T01:53:22.924Z,15.15
2023-07-17T01:58:26.053Z,15.05
2023-07-17T02:03:30.446Z,14.97
2023-07-17T02:08:34.888Z,14.96
2023-07-17T02:13:38.339Z,14.87
2023-07-17T02:18:42.145Z,14.77
2023-07-17T02:23:46.667Z,14.62
2023-07-17T02:28:49.772Z,14.51
2023-07-17T02:33:53.077Z,14.43
2023-07-17T02:38:57.848Z,14.40
2023-07-17T02:44:01.235Z,14.35
2023-07-17T02:49:04.751Z,14.26
2023-07-17T02:54:09.195Z,14.18
2023-07-17T02:59:12.278Z,14.12
2023-07-17T03:04:15.495Z,14.09
2023-07-17T03:09:19.957Z,14.11
2023-07-17T03:14:23.079Z,14.03
2023-07-17T03:19:26.178Z,13.97
2023-07-17T03:24:30.838Z,13.90
2023-07-17T03:29:34.397Z,13.84
2023-07-17T03:34:38.184Z,13.78
2023-07-17T03:39:42.689Z,13.65
2023-07-17T03:44:45.985Z,13.68
2023-07-17T03:49:49.420Z,13.68
2023-07-17T03:54:53.852Z,13.67
2023-07-17T03:59:57.647Z,13.77
2023-07-17T04:05:01.450Z,13.81
2023-07-17T04:10:06.554Z,13.79
2023-07-17T04:15:11.013Z,13.84
2023-07-17T04:20:14.139Z,13.89
2023-07-17T04:25:18.768Z,13.91
2023-07-17T04:30:21.883Z,13.99
2023-07-17T04:35:25.028Z,14.10
2023-07-17T04:40:29.509Z,14.23
2023-07-17T04:45:33.138Z,14.42
2023-07-17T04:50:36.276Z,14.62
2023-07-17T04:55:40.743Z,14.78
2023-07-17T05:00:47.252Z,14.93
2023-07-17T05:05:50.687Z,15.12
2023-07-17T05:10:59.095Z,15.40
2023-07-17T05:16:02.221Z,15.67
2023-07-17T05:21:05.347Z,15.82
2023-07-17T05:26:09.750Z,15.98
2023-07-17T05:31:12.888Z,16.16
2023-07-17T05:36:16.018Z,16.47
2023-07-17T05:41:20.691Z,16.74
2023-07-17T05:46:23.952Z,16.94
2023-07-17T05:51:27.392Z,17.32
2023-07-17T05:56:32.196Z,17.81
2023-07-17T06:01:35.920Z,18.20
2023-07-17T06:06:39.020Z,18.50
2023-07-17T06:11:43.458Z,18.47
2023-07-17T06:16:46.580Z,18.57
2023-07-17T06:21:49.772Z,18.68
2023-07-17T06:26:56.148Z,19.28
2023-07-17T06:32:00.348Z,19.98
2023-07-17T06:37:04.751Z,20.13
2023-07-17T06:42:10.043Z,20.65
2023-07-17T06:47:25.235Z,21.41
2023-07-17T06:52:39.171Z,21.54
2023-07-17T06:57:44.098Z,22.78
2023-07-17T07:02:47.294Z,23.85
2023-07-17T07:07:50.409Z,24.03
2023-07-17T07:12:55.211Z,24.10
2023-07-17T07:17:58.395Z,24.86
2023-07-17T07:23:01.582Z,25.47
2023-07-17T07:28:06.493Z,24.82
2023-07-17T07:33:09.771Z,24.83
2023-07-17T07:38:12.953Z,24.23
2023-07-17T07:43:17.660Z,25.67
2023-07-17T07:48:20.748Z,26.32
2023-07-17T07:53:23.874Z,26.94
2023-07-17T07:58:28.457Z,27.58
2023-07-17T08:03:32.448Z,28.03
2023-07-17T08:08:35.911Z,28.59
2023-07-17T08:13:40.810Z,27.85
2023-07-17T08:18:44.099Z,27.72
2023-07-17T08:23:47.751Z,27.15
2023-07-17T08:28:52.237Z,25.71
2023-07-17T08:33:55.881Z,25.33
2023-07-17T08:38:59.232Z,24.72
2023-07-17T08:44:04.521Z,25.09
2023-07-17T08:49:08.168Z,25.32
2023-07-17T08:54:27.948Z,25.98
2023-07-17T08:59:35.647Z,24.99
2023-07-17T09:04:39.087Z,23.83
2023-07-17T09:09:42.201Z,24.99
2023-07-17T09:14:49.384Z,25.60
2023-07-17T09:19:52.839Z,25.47
2023-07-17T09:24:56.946Z,24.82
2023-07-17T09:30:10.213Z,24.07
2023-07-17T09:35:13.620Z,25.35
2023-07-17T09:40:19.698Z,25.46
2023-07-17T09:45:25.594Z,24.87
2023-07-17T09:50:28.897Z,26.10
2023-07-17T09:55:34.408Z,26.37
2023-07-17T10:00:42.465Z,25.59
2023-07-17T10:05:45.854Z,26.13
2023-07-17T10:10:48.971Z,26.24
2023-07-17T10:15:53.759Z,26.45
2023-07-17T10:20:57.479Z,25.51
2023-07-17T10:26:09.019Z,24.91
2023-07-17T10:31:20.034Z,24.72
2023-07-17T10:36:39.216Z,24.65
2023-07-17T10:41:43.923Z,24.68
2023-07-17T10:46:49.528Z,25.21
2023-07-17T10:51:53.014Z,25.52
2023-07-17T10:56:57.458Z,27.10
2023-07-17T11:02:05.417Z,28.11
2023-07-17T11:07:09.774Z,28.52
2023-07-17T11:12:13.035Z,28.77
2023-07-17T11:17:17.519Z,28.57
2023-07-17T11:22:20.634Z,28.24
2023-07-17T11:27:23.795Z,28.74
2023-07-17T11:32:30.393Z,29.15
2023-07-17T11:37:35.370Z,29.80
2023-07-17T11:42:54.808Z,30.07
2023-07-17T11:48:00.069Z,29.43
2023-07-17T11:53:06.564Z,30.49
2023-07-17T11:58:16.959Z,29.85
2023-07-17T12:03:21.873Z,29.66
2023-07-17T12:08:25.107Z,29.65
2023-07-17T12:13:28.195Z,29.24
2023-07-17T12:18:32.637Z,28.88
2023-07-17T12:23:35.768Z,28.79
2023-07-17T12:28:38.916Z,28.96
2023-07-17T12:33:45.258Z,28.88
2023-07-17T12:38:48.542Z,29.15
2023-07-17T12:43:51.819Z,29.68
2023-07-17T12:48:56.228Z,29.70
2023-07-17T12:53:59.347Z,28.73
2023-07-17T12:59:02.543Z,28.43
2023-07-17T13:04:07.108Z,28.59
2023-07-17T13:09:10.435Z,28.69
2023-07-17T13:14:13.535Z,28.30
2023-07-17T13:19:19.388Z,28.28
2023-07-17T13:24:24.168Z,28.62
2023-07-17T13:29:27.304Z,28.62
2023-07-17T13:34:31.769Z,27.99
2023-07-17T13:39:34.922Z,27.30
2023-07-17T13:44:38.006Z,26.62
2023-07-17T13:49:43.104Z,26.17
2023-07-17T13:54:46.492Z,26.15
2023-07-17T13:59:53.134Z,26.92
2023-07-17T14:04:58.060Z,28.21
2023-07-17T14:10:01.183Z,28.48
2023-07-17T14:15:04.761Z,28.62
2023-07-17T14:20:10.544Z,28.39
2023-07-17T14:25:13.673Z,27.67
2023-07-17T14:30:17.403Z,27.63
2023-07-17T14:35:22.174Z,27.76
2023-07-17T14:40:25.315Z,28.40
2023-07-17T14:45:28.418Z,28.51
2023-07-17T14:50:32.979Z,28.28
2023-07-17T14:55:37.200Z,27.74
2023-07-17T15:00:40.488Z,27.43
2023-07-17T15:05:45.023Z,26.98
2023-07-17T15:10:48.167Z,26.72
2023-07-17T15:15:51.316Z,26.53
2023-07-17T15:20:55.873Z,26.87
2023-07-17T15:25:59.184Z,27.16
2023-07-17T15:31:02.539Z,27.38
2023-07-17T15:36:07.556Z,26.87
2023-07-17T15:41:10.680Z,26.39
2023-07-17T15:46:13.790Z,26.31
2023-07-17T15:51:18.523Z,26.57
2023-07-17T15:56:21.847Z,26.66
2023-07-17T16:01:25.350Z,26.39
2023-07-17T16:06:31.079Z,26.62
2023-07-17T16:11:34.529Z,27.45
2023-07-17T16:16:38.203Z,28.15
2023-07-17T16:21:42.714Z,28.24
2023-07-17T16:26:45.785Z,28.05
2023-07-17T16:31:48.874Z,28.98
2023-07-17T16:36:53.330Z,29.20
2023-07-17T16:41:56.567Z,27.79
2023-07-17T16:46:59.799Z,27.31
2023-07-17T16:52:04.696Z,26.59
2023-07-17T16:57:08.313Z,27.09
2023-07-17T17:02:11.612Z,26.75
2023-07-17T17:07:16.200Z,27.62
2023-07-17T17:12:19.365Z,27.82
2023-07-17T17:17:22.560Z,27.37
2023-07-17T17:22:27.305Z,26.15
2023-07-17T17:27:30.860Z,25.64
2023-07-17T17:32:34.121Z,25.43
2023-07-17T17:37:38.621Z,25.18
2023-07-17T17:42:42.104Z,25.00
2023-07-17T17:47:45.266Z,24.93
2023-07-17T17:52:51.528Z,24.73
2023-07-17T17:57:54.606Z,24.45
2023-07-17T18:02:57.861Z,24.30
2023-07-17T18:08:02.414Z,24.18
2023-07-17T18:13:05.515Z,24.21
2023-07-17T18:18:08.878Z,24.01
2023-07-17T18:23:13.430Z,23.92
2023-07-17T18:28:16.582Z,23.62
2023-07-17T18:33:19.641Z,23.37
2023-07-17T18:38:24.423Z,23.16
2023-07-17T18:43:28.039Z,23.04
2023-07-17T18:48:31.144Z,22.84
2023-07-17T18:53:35.593Z,22.60
2023-07-17T18:58:38.687Z,22.39
2023-07-17T19:03:41.840Z,22.16
2023-07-17T19:08:46.757Z,21.90
2023-07-17T19:13:49.852Z,21.54
2023-07-17T19:18:53.105Z,21.20
2023-07-17T19:23:57.998Z,20.94
2023-07-17T19:29:01.339Z,20.71
2023-07-17T19:34:04.443Z,20.57
2023-07-17T19:39:09.172Z,20.41
2023-07-17T19:44:13.008Z,20.19
2023-07-17T19:49:16.092Z,20.10
2023-07-17T19:54:20.718Z,19.88
2023-07-17T19:59:23.785Z,19.82
2023-07-17T20:04:27.141Z,19.78
2023-07-17T20:09:33.498Z,19.63
2023-07-17T20:14:36.642Z,19.43
2023-07-17T20:19:39.719Z,19.34
2023-07-17T20:24:44.166Z,19.14
2023-07-17T20:29:47.556Z,18.96
2023-07-17T20:34:50.734Z,18.89
2023-07-17T20:39:55.519Z,18.83
2023-07-17T20:44:58.971Z,18.74
2023-07-17T20:50:02.705Z,18.70
2023-07-17T20:55:08.283Z,18.65
2023-07-17T21:00:13.676Z,18.51
2023-07-17T21:05:24.957Z,18.32
2023-07-17T21:10:29.643Z,18.26
2023-07-17T21:15:33.424Z,18.08
2023-07-17T21:20:36.717Z,17.95
2023-07-17T21:25:41.652Z,17.79
2023-07-17T21:30:45.747Z,17.63
2023-07-17T21:35:48.894Z,17.48
2023-07-17T21:40:53.668Z,17.32
2023-07-17T21:45:56.803Z,17.17
2023-07-17T21:51:00.645Z,16.94
2023-07-17T21:56:05.574Z,16.81
2023-07-17T22:01:08.738Z,16.72
2023-07-17T22:06:12.209Z,16.63
2023-07-17T22:11:17.246Z,16.50
2023-07-17T22:16:22.099Z,16.42
2023-07-17T22:21:26.064Z,16.30
2023-07-17T22:26:30.947Z,16.20
2023-07-17T22:31:34.104Z,16.11
2023-07-17T22:36:37.248Z,15.99
2023-07-17T22:41:41.862Z,15.82
2023-07-17T22:46:44.985Z,15.79
2023-07-17T22:51:48.177Z,15.77
2023-07-17T22:56:52.824Z,15.67
2023-07-17T23:01:56.292Z,15.63
2023-07-17T23:06:59.451Z,15.57
2023-07-17T23:12:04.085Z,15.45
2023-07-17T23:17:07.937Z,15.38
2023-07-17T23:22:11.068Z,15.33
2023-07-17T23:27:15.510Z,15.28
2023-07-17T23:32:18.713Z,15.19
2023-07-17T23:37:22.523Z,15.18
2023-07-17T23:42:28.729Z,15.13
2023-07-17T23:47:31.867Z,15.12
2023-07-17T23:52:35.356Z,15.07
2023-07-17T23:57:40.148Z,15.01
